createdAt,value
2018-03-18T00:00:52.864Z,988.59
2018-03-18T00:01:52.843Z,988.59
2018-03-18T00:02:52.826Z,988.56
2018-03-18T00:03:52.806Z,988.58
2018-03-18T00:04:52.784Z,988.64
2018-03-18T00:05:52.765Z,988.60
2018-03-18T00:06:52.785Z,988.59
2018-03-18T00:07:52.724Z,988.61
2018-03-18T00:08:52.705Z,988.60
2018-03-18T00:09:52.686Z,988.65
2018-03-18T00:10:52.666Z,988.62
2018-03-18T00:11:52.646Z,988.63
2018-03-18T00:12:52.626Z,988.63
2018-03-18T00:13:52.607Z,988.65
2018-03-18T00:14:52.587Z,988.67
2018-03-18T00:15:52.567Z,988.63
2018-03-18T00:16:52.547Z,988.64
2018-03-18T00:17:52.528Z,988.63
2018-03-18T00:18:52.508Z,988.65
2018-03-18T00:19:52.488Z,988.62
2018-03-18T00:20:52.486Z,988.67
2018-03-18T00:21:52.451Z,988.63
2018-03-18T00:22:52.480Z,988.65
2018-03-18T00:23:52.413Z,988.65
2018-03-18T00:24:52.390Z,988.70
2018-03-18T00:25:52.420Z,988.67
2018-03-18T00:26:52.351Z,988.71
2018-03-18T00:27:52.331Z,988.70
2018-03-18T00:28:52.346Z,988.69
2018-03-18T00:29:52.292Z,988.69
2018-03-18T00:30:52.272Z,988.68
2018-03-18T00:31:52.269Z,988.72
2018-03-18T00:32:52.235Z,988.72
2018-03-18T00:33:52.219Z,988.68
2018-03-18T00:34:52.197Z,988.78
2018-03-18T00:35:52.191Z,988.69
2018-03-18T00:36:52.153Z,988.73
2018-03-18T00:37:52.189Z,988.69
2018-03-18T00:38:52.115Z,988.68
2018-03-18T00:39:52.094Z,988.69
2018-03-18T00:40:52.113Z,988.68
2018-03-18T00:41:52.055Z,988.71
2018-03-18T00:42:52.036Z,988.72
2018-03-18T00:43:52.040Z,988.72
2018-03-18T00:44:51.996Z,988.77
2018-03-18T00:45:51.976Z,988.76
2018-03-18T00:46:51.962Z,988.70
2018-03-18T00:47:51.941Z,988.72
2018-03-18T00:48:51.917Z,988.74
2018-03-18T00:49:51.898Z,988.75
2018-03-18T00:50:51.879Z,988.75
2018-03-18T00:51:51.858Z,988.70
2018-03-18T00:52:51.838Z,988.73
2018-03-18T00:53:51.819Z,988.72
2018-03-18T00:54:51.800Z,988.75
2018-03-18T00:55:51.784Z,988.75
2018-03-18T00:56:51.760Z,988.74
2018-03-18T00:57:51.741Z,988.72
2018-03-18T00:58:51.722Z,988.75
2018-03-18T00:59:51.712Z,988.74
2018-03-18T01:00:51.686Z,988.75
2018-03-18T01:01:51.685Z,988.70
2018-03-18T01:02:51.644Z,988.72
2018-03-18T01:03:51.622Z,988.83
2018-03-18T01:04:51.614Z,988.75
2018-03-18T01:05:51.584Z,988.77
2018-03-18T01:06:51.564Z,988.76
2018-03-18T01:07:51.549Z,988.74
2018-03-18T01:08:51.524Z,988.78
2018-03-18T01:09:51.505Z,988.70
2018-03-18T01:10:51.485Z,988.74
2018-03-18T01:11:51.464Z,988.77
2018-03-18T01:12:51.445Z,988.74
2018-03-18T01:13:51.435Z,988.74
2018-03-18T01:14:51.418Z,988.75
2018-03-18T01:15:51.388Z,988.73
2018-03-18T01:16:51.578Z,988.80
2018-03-18T01:17:51.346Z,988.78
2018-03-18T01:18:51.326Z,988.75
2018-03-18T01:19:51.306Z,988.83
2018-03-18T01:20:51.287Z,988.73
2018-03-18T01:21:51.267Z,988.73
2018-03-18T01:22:51.249Z,988.76
2018-03-18T01:23:51.237Z,988.72
2018-03-18T01:24:51.207Z,988.77
2018-03-18T01:25:51.188Z,988.74
2018-03-18T01:26:51.178Z,988.73
2018-03-18T01:27:51.150Z,988.77
2018-03-18T01:28:51.128Z,988.70
2018-03-18T01:29:51.120Z,988.71
2018-03-18T01:30:51.089Z,988.77
2018-03-18T01:31:51.280Z,988.78
2018-03-18T01:32:51.049Z,988.77
2018-03-18T01:33:51.029Z,988.75
2018-03-18T01:34:51.052Z,988.71
2018-03-18T01:35:50.991Z,988.72
2018-03-18T01:36:50.970Z,988.72
2018-03-18T01:37:50.978Z,988.71
2018-03-18T01:38:50.931Z,988.68
2018-03-18T01:39:50.911Z,988.72
2018-03-18T01:40:50.902Z,988.76
2018-03-18T01:41:50.885Z,988.77
2018-03-18T01:42:50.854Z,988.70
2018-03-18T01:43:50.858Z,988.73
2018-03-18T01:44:50.814Z,988.73
2018-03-18T01:45:50.793Z,988.70
2018-03-18T01:46:50.816Z,988.68
2018-03-18T01:47:50.760Z,988.69
2018-03-18T01:48:50.736Z,988.69
2018-03-18T01:49:50.742Z,988.73
2018-03-18T01:50:50.695Z,988.77
2018-03-18T01:51:50.675Z,988.72
2018-03-18T01:52:50.671Z,988.71
2018-03-18T01:53:50.636Z,988.67
2018-03-18T01:54:50.617Z,988.69
2018-03-18T01:55:50.598Z,988.67
2018-03-18T01:56:50.580Z,988.71
2018-03-18T01:57:50.557Z,988.68
2018-03-18T01:58:50.538Z,988.61
2018-03-18T01:59:50.517Z,988.67
2018-03-18T02:00:50.499Z,988.65
2018-03-18T02:01:50.479Z,988.63
2018-03-18T02:02:50.460Z,988.60
2018-03-18T02:03:50.440Z,988.64
2018-03-18T02:04:50.421Z,988.65
2018-03-18T02:05:50.401Z,988.61
2018-03-18T02:06:50.385Z,988.60
2018-03-18T02:07:50.385Z,988.62
2018-03-18T02:08:50.351Z,988.60
2018-03-18T02:09:50.327Z,988.58
2018-03-18T02:10:50.320Z,988.59
2018-03-18T02:11:50.283Z,988.57
2018-03-18T02:12:50.268Z,988.54
2018-03-18T02:13:50.245Z,988.52
2018-03-18T02:14:50.226Z,988.52
2018-03-18T02:15:50.205Z,988.53
2018-03-18T02:16:50.186Z,988.52
2018-03-18T02:17:50.167Z,988.60
2018-03-18T02:18:50.149Z,988.50
2018-03-18T02:19:50.128Z,988.56
2018-03-18T02:20:50.111Z,988.53
2018-03-18T02:21:50.110Z,988.60
2018-03-18T02:22:50.070Z,988.56
2018-03-18T02:23:50.058Z,988.52
2018-03-18T02:24:50.038Z,988.58
2018-03-18T02:25:50.011Z,988.53
2018-03-18T02:26:49.992Z,988.51
2018-03-18T02:27:49.976Z,988.51
2018-03-18T02:28:49.954Z,988.52
2018-03-18T02:29:49.934Z,988.48
2018-03-18T02:30:49.915Z,988.47
2018-03-18T02:31:49.896Z,988.47
2018-03-18T02:32:49.875Z,988.48
2018-03-18T02:33:49.856Z,988.47
2018-03-18T02:34:49.838Z,988.51
2018-03-18T02:35:49.820Z,988.41
2018-03-18T02:36:49.798Z,988.51
2018-03-18T02:37:49.778Z,988.48
2018-03-18T02:38:49.761Z,988.43
2018-03-18T02:39:49.742Z,988.46
2018-03-18T02:40:49.779Z,988.43
2018-03-18T02:41:49.701Z,988.48
2018-03-18T02:42:49.683Z,988.45
2018-03-18T02:44:23.044Z,988.50
2018-03-18T02:44:49.644Z,988.48
2018-03-18T02:45:49.638Z,988.48
2018-03-18T02:46:49.608Z,988.47
2018-03-18T02:47:49.625Z,988.41
2018-03-18T02:48:49.576Z,988.47
2018-03-18T02:49:49.546Z,988.47
2018-03-18T02:50:49.570Z,988.51
2018-03-18T02:51:49.508Z,988.50
2018-03-18T02:52:49.488Z,988.47
2018-03-18T02:53:49.673Z,988.44
2018-03-18T02:54:49.462Z,988.51
2018-03-18T02:55:49.430Z,988.48
2018-03-18T02:56:49.428Z,988.47
2018-03-18T02:57:49.403Z,988.47
2018-03-18T02:58:49.373Z,988.45
2018-03-18T02:59:49.410Z,988.49
2018-03-18T03:00:49.336Z,988.49
2018-03-18T03:01:49.315Z,988.50
2018-03-18T03:02:49.345Z,988.42
2018-03-18T03:03:49.280Z,988.43
2018-03-18T03:04:49.260Z,988.49
2018-03-18T03:05:49.269Z,988.49
2018-03-18T03:06:49.217Z,988.51
2018-03-18T03:07:49.197Z,988.46
2018-03-18T03:08:49.229Z,988.51
2018-03-18T03:09:49.161Z,988.54
2018-03-18T03:10:49.139Z,988.54
2018-03-18T03:11:49.119Z,988.54
2018-03-18T03:12:49.100Z,988.48
2018-03-18T03:13:49.085Z,988.50
2018-03-18T03:14:49.062Z,988.48
2018-03-18T03:15:49.042Z,988.48
2018-03-18T03:16:49.022Z,988.47
2018-03-18T03:17:49.003Z,988.52
2018-03-18T03:18:48.984Z,988.48
2018-03-18T03:19:48.964Z,988.49
2018-03-18T03:20:48.944Z,988.49
2018-03-18T03:21:48.925Z,988.50
2018-03-18T03:22:48.911Z,988.50
2018-03-18T03:23:48.885Z,988.49
2018-03-18T03:24:48.880Z,988.46
2018-03-18T03:25:48.848Z,988.49
2018-03-18T03:26:48.880Z,988.52
2018-03-18T03:27:48.810Z,988.44
2018-03-18T03:28:48.788Z,988.52
2018-03-18T03:29:48.814Z,988.47
2018-03-18T03:30:48.751Z,988.50
2018-03-18T03:31:48.730Z,988.44
2018-03-18T03:32:48.743Z,988.46
2018-03-18T03:33:48.692Z,988.52
2018-03-18T03:34:48.671Z,988.48
2018-03-18T03:35:48.664Z,988.52
2018-03-18T03:36:48.653Z,988.51
2018-03-18T03:37:48.613Z,988.53
2018-03-18T03:38:48.626Z,988.49
2018-03-18T03:39:48.574Z,988.50
2018-03-18T03:40:48.555Z,988.53
2018-03-18T03:41:48.581Z,988.53
2018-03-18T03:42:48.516Z,988.51
2018-03-18T03:43:48.495Z,988.51
2018-03-18T03:44:48.503Z,988.53
2018-03-18T03:45:48.457Z,988.55
2018-03-18T03:46:48.443Z,988.57
2018-03-18T03:47:48.433Z,988.56
2018-03-18T03:48:48.399Z,988.61
2018-03-18T03:49:48.380Z,988.56
2018-03-18T03:50:48.361Z,988.60
2018-03-18T03:51:48.341Z,988.59
2018-03-18T03:52:48.321Z,988.61
2018-03-18T03:53:48.303Z,988.63
2018-03-18T03:54:48.283Z,988.65
2018-03-18T03:55:48.263Z,988.64
2018-03-18T03:56:48.243Z,988.61
2018-03-18T03:57:48.225Z,988.69
2018-03-18T03:58:48.205Z,988.64
2018-03-18T03:59:48.185Z,988.67
2018-03-18T04:00:48.177Z,988.61
2018-03-18T04:01:48.152Z,988.60
2018-03-18T04:02:48.147Z,988.65
2018-03-18T04:03:48.119Z,988.64
2018-03-18T04:04:48.089Z,988.67
2018-03-18T04:05:48.080Z,988.64
2018-03-18T04:06:48.053Z,988.67
2018-03-18T04:07:48.031Z,988.69
2018-03-18T04:08:48.012Z,988.65
2018-03-18T04:09:47.993Z,988.62
2018-03-18T04:10:47.974Z,988.65
2018-03-18T04:11:47.954Z,988.64
2018-03-18T04:12:47.945Z,988.63
2018-03-18T04:13:47.916Z,988.69
2018-03-18T04:14:47.901Z,988.66
2018-03-18T04:15:47.876Z,988.68
2018-03-18T04:16:47.870Z,988.67
2018-03-18T04:17:47.839Z,988.66
2018-03-18T04:18:47.820Z,988.76
2018-03-18T04:19:47.801Z,988.72
2018-03-18T04:20:47.780Z,988.75
2018-03-18T04:21:47.762Z,988.72
2018-03-18T04:22:47.742Z,988.77
2018-03-18T04:23:47.722Z,988.76
2018-03-18T04:24:47.703Z,988.73
2018-03-18T04:25:47.684Z,988.74
2018-03-18T04:26:47.665Z,988.74
2018-03-18T04:27:47.645Z,988.75
2018-03-18T04:28:47.629Z,988.75
2018-03-18T04:29:47.606Z,988.75
2018-03-18T04:30:47.587Z,988.76
2018-03-18T04:31:47.567Z,988.77
2018-03-18T04:32:47.549Z,988.77
2018-03-18T04:33:47.529Z,988.76
2018-03-18T04:34:47.511Z,988.76
2018-03-18T04:35:47.490Z,988.75
2018-03-18T04:36:47.471Z,988.78
2018-03-18T04:37:47.455Z,988.75
2018-03-18T04:38:47.463Z,988.76
2018-03-18T04:39:47.416Z,988.77
2018-03-18T04:40:47.404Z,988.75
2018-03-18T04:41:47.376Z,988.75
2018-03-18T04:42:47.565Z,988.78
2018-03-18T04:43:47.336Z,988.76
2018-03-18T04:44:47.317Z,988.79
2018-03-18T04:45:47.334Z,988.80
2018-03-18T04:46:47.279Z,988.79
2018-03-18T04:47:47.258Z,988.80
2018-03-18T04:48:47.262Z,988.83
2018-03-18T04:49:47.221Z,988.83
2018-03-18T04:50:47.209Z,988.82
2018-03-18T04:51:47.187Z,988.85
2018-03-18T04:52:47.171Z,988.82
2018-03-18T04:53:47.143Z,988.84
2018-03-18T04:54:47.175Z,988.85
2018-03-18T04:55:47.103Z,988.82
2018-03-18T04:56:47.085Z,988.84
2018-03-18T04:57:47.099Z,988.87
2018-03-18T04:58:47.050Z,988.82
2018-03-18T04:59:47.026Z,988.87
2018-03-18T05:00:47.029Z,988.92
2018-03-18T05:01:46.988Z,988.90
2018-03-18T05:02:46.969Z,988.87
2018-03-18T05:03:46.953Z,988.88
2018-03-18T05:04:46.929Z,988.92
2018-03-18T05:05:46.910Z,988.92
2018-03-18T05:06:46.891Z,988.90
2018-03-18T05:07:46.871Z,988.93
2018-03-18T05:08:46.855Z,988.93
2018-03-18T05:09:46.832Z,988.94
2018-03-18T05:10:46.813Z,988.96
2018-03-18T05:11:46.793Z,988.93
2018-03-18T05:12:46.783Z,988.95
2018-03-18T05:13:46.755Z,988.92
2018-03-18T05:14:46.736Z,988.98
2018-03-18T05:15:46.716Z,988.90
2018-03-18T05:16:46.730Z,988.98
2018-03-18T05:17:46.694Z,988.91
2018-03-18T05:18:46.657Z,988.95
2018-03-18T05:19:46.684Z,988.98
2018-03-18T05:20:46.619Z,988.94
2018-03-18T05:21:46.664Z,988.93
2018-03-18T05:22:46.607Z,988.94
2018-03-18T05:23:46.560Z,988.93
2018-03-18T05:24:46.773Z,988.97
2018-03-18T05:25:46.536Z,988.95
2018-03-18T05:26:46.502Z,988.94
2018-03-18T05:27:46.699Z,988.98
2018-03-18T05:28:46.466Z,988.99
2018-03-18T05:29:46.463Z,989.02
2018-03-18T05:30:46.459Z,989.00
2018-03-18T05:31:46.439Z,989.00
2018-03-18T05:32:46.386Z,988.99
2018-03-18T05:33:46.387Z,988.99
2018-03-18T05:34:46.395Z,988.99
2018-03-18T05:35:46.329Z,989.01
2018-03-18T05:36:46.323Z,989.01
2018-03-18T05:37:46.291Z,989.04
2018-03-18T05:38:46.314Z,988.99
2018-03-18T05:39:46.251Z,989.04
2018-03-18T05:40:46.292Z,989.01
2018-03-18T05:41:46.212Z,989.05
2018-03-18T05:42:46.205Z,989.12
2018-03-18T05:43:46.174Z,989.04
2018-03-18T05:44:46.159Z,989.07
2018-03-18T05:45:46.135Z,989.08
2018-03-18T05:46:46.116Z,989.11
2018-03-18T05:47:46.194Z,989.09
2018-03-18T05:48:46.076Z,989.07
2018-03-18T05:49:46.057Z,989.08
2018-03-18T05:50:46.241Z,989.11
2018-03-18T05:51:46.019Z,989.14
2018-03-18T05:52:45.999Z,989.11
2018-03-18T05:53:46.079Z,989.14
2018-03-18T05:54:45.963Z,989.15
2018-03-18T05:55:45.944Z,989.19
2018-03-18T05:56:46.124Z,989.22
2018-03-18T05:57:45.907Z,989.24
2018-03-18T05:58:45.883Z,989.23
2018-03-18T05:59:45.954Z,989.24
2018-03-18T06:00:45.843Z,989.18
2018-03-18T06:01:45.824Z,989.29
2018-03-18T06:02:45.828Z,989.29
2018-03-18T06:03:45.784Z,989.25
2018-03-18T06:04:45.767Z,989.27
2018-03-18T06:05:45.791Z,989.37
2018-03-18T06:06:45.725Z,989.34
2018-03-18T06:07:45.707Z,989.31
2018-03-18T06:08:45.698Z,989.37
2018-03-18T06:09:45.666Z,989.34
2018-03-18T06:10:45.648Z,989.38
2018-03-18T06:11:45.628Z,989.39
2018-03-18T06:12:45.607Z,989.41
2018-03-18T06:13:45.588Z,989.51
2018-03-18T06:14:45.569Z,989.40
2018-03-18T06:15:45.548Z,989.45
2018-03-18T06:16:45.587Z,989.52
2018-03-18T06:17:45.513Z,989.51
2018-03-18T06:18:45.490Z,989.54
2018-03-18T06:19:45.552Z,989.42
2018-03-18T06:20:45.450Z,989.51
2018-03-18T06:21:45.431Z,989.51
2018-03-18T06:23:45.391Z,989.50
2018-03-18T06:24:45.378Z,989.56
2018-03-18T06:25:45.399Z,989.55
2018-03-18T06:26:45.333Z,989.59
2018-03-18T06:27:45.317Z,989.54
2018-03-18T06:28:45.497Z,989.59
2018-03-18T06:29:45.276Z,989.55
2018-03-18T06:30:45.255Z,989.56
2018-03-18T06:31:45.439Z,989.62
2018-03-18T06:32:45.217Z,989.66
2018-03-18T06:33:45.194Z,989.63
2018-03-18T06:34:45.213Z,989.66
2018-03-18T06:35:45.155Z,989.67
2018-03-18T06:36:45.136Z,989.67
2018-03-18T06:37:45.129Z,989.69
2018-03-18T06:38:45.097Z,989.66
2018-03-18T06:39:45.077Z,989.71
2018-03-18T06:40:45.106Z,989.75
2018-03-18T06:41:45.042Z,989.76
2018-03-18T06:42:45.023Z,989.82
2018-03-18T06:43:45.001Z,989.81
2018-03-18T06:44:44.982Z,989.81
2018-03-18T06:45:44.965Z,989.76
2018-03-18T06:46:44.947Z,989.80
2018-03-18T06:47:44.956Z,989.80
2018-03-18T06:48:44.905Z,989.87
2018-03-18T06:49:44.886Z,989.89
2018-03-18T06:50:44.868Z,989.91
2018-03-18T06:51:44.887Z,989.92
2018-03-18T06:52:44.830Z,989.92
2018-03-18T06:53:44.812Z,989.94
2018-03-18T06:54:44.794Z,989.89
2018-03-18T06:55:44.776Z,989.94
2018-03-18T06:56:44.760Z,989.93
2018-03-18T06:58:44.720Z,989.95
2018-03-18T06:59:44.701Z,989.92
2018-03-18T07:00:44.765Z,989.99
2018-03-18T07:01:44.663Z,989.96
2018-03-18T07:02:44.647Z,990.00
2018-03-18T07:03:44.670Z,989.95
2018-03-18T07:04:44.609Z,989.98
2018-03-18T07:05:44.590Z,989.99
2018-03-18T07:06:44.606Z,990.06
2018-03-18T07:07:44.552Z,990.04
2018-03-18T07:08:44.534Z,990.02
2018-03-18T07:09:44.516Z,990.05
2018-03-18T07:10:44.499Z,990.05
2018-03-18T07:11:44.482Z,989.96
2018-03-18T07:12:44.517Z,990.05
2018-03-18T07:13:44.445Z,990.03
2018-03-18T07:14:44.426Z,990.04
2018-03-18T07:15:44.621Z,990.09
2018-03-18T07:16:44.394Z,990.13
2018-03-18T07:17:44.372Z,990.15
2018-03-18T07:18:44.434Z,990.11
2018-03-18T07:19:44.334Z,990.15
2018-03-18T07:20:44.314Z,990.12
2018-03-18T07:21:44.499Z,990.10
2018-03-18T07:22:44.280Z,990.09
2018-03-18T07:23:44.259Z,990.12
2018-03-18T07:24:44.272Z,990.14
2018-03-18T07:25:44.223Z,990.15
2018-03-18T07:26:44.213Z,990.18
2018-03-18T07:27:44.211Z,990.18
2018-03-18T07:28:44.172Z,990.19
2018-03-18T07:29:44.150Z,990.18
2018-03-18T07:30:44.129Z,990.12
2018-03-18T07:31:44.114Z,990.17
2018-03-18T07:32:44.092Z,990.15
2018-03-18T07:33:44.075Z,990.16
2018-03-18T07:34:44.055Z,990.24
2018-03-18T07:35:44.035Z,990.25
2018-03-18T07:36:44.019Z,990.22
2018-03-18T07:37:44.003Z,990.24
2018-03-18T07:38:44.030Z,990.22
2018-03-18T07:39:43.961Z,990.22
2018-03-18T07:40:43.942Z,990.16
2018-03-18T07:41:43.923Z,990.20
2018-03-18T07:42:43.905Z,990.15
2018-03-18T07:43:43.897Z,990.23
2018-03-18T07:44:43.935Z,990.21
2018-03-18T07:45:43.852Z,990.20
2018-03-18T07:46:43.831Z,990.20
2018-03-18T07:47:44.014Z,990.24
2018-03-18T07:48:43.792Z,990.27
2018-03-18T07:49:43.775Z,990.24
2018-03-18T07:51:43.737Z,990.25
2018-03-18T07:52:43.719Z,990.24
2018-03-18T07:53:43.784Z,990.22
2018-03-18T07:54:43.682Z,990.24
2018-03-18T07:55:43.666Z,990.22
2018-03-18T07:56:43.718Z,990.24
2018-03-18T07:57:43.626Z,990.23
2018-03-18T07:58:43.608Z,990.25
2018-03-18T07:59:43.649Z,990.28
2018-03-18T08:00:43.570Z,990.28
2018-03-18T08:01:43.552Z,990.29
2018-03-18T08:02:43.534Z,990.29
2018-03-18T08:03:43.518Z,990.29
2018-03-18T08:04:43.499Z,990.31
2018-03-18T08:05:43.479Z,990.33
2018-03-18T08:06:43.460Z,990.36
2018-03-18T08:07:43.442Z,990.44
2018-03-18T08:08:43.421Z,990.45
2018-03-18T08:09:43.401Z,990.43
2018-03-18T08:10:43.385Z,990.48
2018-03-18T08:11:43.366Z,990.51
2018-03-18T08:12:43.346Z,990.43
2018-03-18T08:13:43.328Z,990.46
2018-03-18T08:14:43.309Z,990.47
2018-03-18T08:15:43.289Z,990.50
2018-03-18T08:16:43.272Z,990.52
2018-03-18T08:17:43.325Z,990.47
2018-03-18T08:18:43.235Z,990.53
2018-03-18T08:19:43.216Z,990.52
2018-03-18T08:20:43.400Z,990.59
2018-03-18T08:21:43.179Z,990.54
2018-03-18T08:22:43.160Z,990.58
2018-03-18T08:23:43.245Z,990.54
2018-03-18T08:24:43.127Z,990.61
2018-03-18T08:25:43.105Z,990.59
2018-03-18T08:26:43.134Z,990.61
2018-03-18T08:27:43.069Z,990.65
2018-03-18T08:28:43.051Z,990.63
2018-03-18T08:29:43.047Z,990.63
2018-03-18T08:30:43.015Z,990.63
2018-03-18T08:31:42.995Z,990.63
2018-03-18T08:32:42.980Z,990.62
2018-03-18T08:33:42.959Z,990.63
2018-03-18T08:34:42.944Z,990.65
2018-03-18T08:35:42.922Z,990.64
2018-03-18T08:36:42.904Z,990.67
2018-03-18T08:37:42.887Z,990.62
2018-03-18T08:38:42.879Z,990.66
2018-03-18T08:39:42.850Z,990.66
2018-03-18T08:40:42.833Z,990.66
2018-03-18T08:41:42.817Z,990.66
2018-03-18T08:42:42.797Z,990.66
2018-03-18T08:43:42.810Z,990.63
2018-03-18T08:44:42.762Z,990.70
2018-03-18T08:45:42.746Z,990.68
2018-03-18T08:46:42.833Z,990.66
2018-03-18T08:47:42.707Z,990.67
2018-03-18T08:48:42.691Z,990.73
2018-03-18T08:49:42.717Z,990.70
2018-03-18T08:50:42.656Z,990.64
2018-03-18T08:51:42.636Z,990.64
2018-03-18T08:52:42.686Z,990.68
2018-03-18T08:53:42.602Z,990.61
2018-03-18T08:54:42.589Z,990.63
2018-03-18T08:55:42.584Z,990.66
2018-03-18T08:56:42.549Z,990.69
2018-03-18T08:57:42.532Z,990.65
2018-03-18T08:58:42.515Z,990.74
2018-03-18T08:59:42.497Z,990.74
2018-03-18T09:00:42.481Z,990.68
2018-03-18T09:01:42.463Z,990.72
2018-03-18T09:02:42.446Z,990.68
2018-03-18T09:03:42.428Z,990.73
2018-03-18T09:04:42.410Z,990.72
2018-03-18T09:05:42.394Z,990.71
2018-03-18T09:06:42.424Z,990.72
2018-03-18T09:07:42.362Z,990.71
2018-03-18T09:08:42.342Z,990.74
2018-03-18T09:09:42.541Z,990.71
2018-03-18T09:10:42.312Z,990.72
2018-03-18T09:11:42.290Z,990.69
2018-03-18T09:12:42.272Z,990.76
2018-03-18T09:13:42.305Z,990.69
2018-03-18T09:14:42.240Z,990.75
2018-03-18T09:15:42.222Z,990.75
2018-03-18T09:16:42.245Z,990.76
2018-03-18T09:17:42.212Z,990.77
2018-03-18T09:18:42.172Z,990.73
2018-03-18T09:19:42.177Z,990.78
2018-03-18T09:20:42.135Z,990.79
2018-03-18T09:21:42.119Z,990.76
2018-03-18T09:22:42.100Z,990.78
2018-03-18T09:23:42.083Z,990.69
2018-03-18T09:24:42.067Z,990.79
2018-03-18T09:25:42.050Z,990.79
2018-03-18T09:26:42.033Z,990.81
2018-03-18T09:27:42.022Z,990.73
2018-03-18T09:28:42.001Z,990.80
2018-03-18T09:29:41.989Z,990.80
2018-03-18T09:30:42.167Z,990.81
2018-03-18T09:31:41.945Z,990.80
2018-03-18T09:32:41.929Z,990.81
2018-03-18T09:33:41.979Z,990.81
2018-03-18T09:34:41.898Z,990.80
2018-03-18T09:35:41.941Z,990.77
2018-03-18T09:36:41.901Z,990.82
2018-03-18T09:37:41.843Z,990.78
2018-03-18T09:38:41.825Z,990.82
2018-03-18T09:39:42.012Z,990.78
2018-03-18T09:40:41.790Z,990.82
2018-03-18T09:41:41.773Z,990.83
2018-03-18T09:42:41.830Z,990.87
2018-03-18T09:43:41.737Z,990.85
2018-03-18T09:44:41.720Z,990.89
2018-03-18T09:45:41.702Z,990.88
2018-03-18T09:46:41.687Z,990.88
2018-03-18T09:47:41.667Z,990.86
2018-03-18T09:48:41.649Z,990.83
2018-03-18T09:49:41.632Z,990.88
2018-03-18T09:50:41.617Z,990.87
2018-03-18T09:51:41.598Z,990.83
2018-03-18T09:52:41.578Z,990.87
2018-03-18T09:53:41.561Z,990.88
2018-03-18T09:54:41.543Z,990.89
2018-03-18T09:55:41.524Z,990.90
2018-03-18T09:56:41.710Z,990.85
2018-03-18T09:57:41.547Z,990.90
2018-03-18T09:58:41.474Z,990.91
2018-03-18T09:59:41.657Z,990.91
2018-03-18T10:00:41.436Z,990.84
2018-03-18T10:01:41.419Z,990.88
2018-03-18T10:02:41.450Z,990.97
2018-03-18T10:03:41.383Z,990.97
2018-03-18T10:04:41.366Z,990.97
2018-03-18T10:05:41.392Z,990.99
2018-03-18T10:06:41.331Z,990.94
2018-03-18T10:07:41.313Z,990.95
2018-03-18T10:08:41.331Z,990.95
2018-03-18T10:09:41.280Z,990.95
2018-03-18T10:10:41.260Z,990.95
2018-03-18T10:11:41.342Z,990.96
2018-03-18T10:12:41.226Z,990.97
2018-03-18T10:13:41.206Z,990.99
2018-03-18T10:14:41.254Z,990.88
2018-03-18T10:15:41.173Z,990.95
2018-03-18T10:16:41.153Z,990.98
2018-03-18T10:17:41.180Z,990.97
2018-03-18T10:18:41.118Z,990.98
2018-03-18T10:19:41.102Z,990.99
2018-03-18T10:20:41.094Z,990.93
2018-03-18T10:21:41.064Z,990.97
2018-03-18T10:22:41.046Z,990.94
2018-03-18T10:23:41.032Z,990.93
2018-03-18T10:24:41.013Z,991.01
2018-03-18T10:25:41.002Z,990.96
2018-03-18T10:26:40.979Z,990.96
2018-03-18T10:27:40.958Z,990.97
2018-03-18T10:28:40.941Z,991.04
2018-03-18T10:29:40.924Z,990.97
2018-03-18T10:30:40.906Z,990.95
2018-03-18T10:31:40.983Z,990.98
2018-03-18T10:32:40.931Z,990.97
2018-03-18T10:33:40.854Z,991.00
2018-03-18T10:34:41.040Z,990.98
2018-03-18T10:35:40.819Z,991.04
2018-03-18T10:36:40.802Z,990.95
2018-03-18T10:37:40.872Z,990.98
2018-03-18T10:38:40.769Z,991.02
2018-03-18T10:39:40.781Z,990.96
2018-03-18T10:40:40.935Z,990.95
2018-03-18T10:41:40.718Z,991.02
2018-03-18T10:42:40.698Z,990.94
2018-03-18T10:43:40.885Z,990.99
2018-03-18T10:44:40.666Z,990.99
2018-03-18T10:45:40.658Z,990.97
2018-03-18T10:46:40.631Z,990.93
2018-03-18T10:47:40.613Z,990.97
2018-03-18T10:48:40.651Z,990.95
2018-03-18T10:49:40.580Z,991.01
2018-03-18T10:50:40.563Z,990.93
2018-03-18T10:51:40.546Z,990.98
2018-03-18T10:52:40.533Z,990.95
2018-03-18T10:53:40.517Z,991.00
2018-03-18T10:54:40.497Z,990.94
2018-03-18T10:55:40.481Z,990.92
2018-03-18T10:56:40.468Z,990.96
2018-03-18T10:57:40.539Z,990.94
2018-03-18T10:58:40.433Z,991.00
2018-03-18T10:59:40.414Z,990.94
2018-03-18T11:01:40.384Z,990.96
2018-03-18T11:02:40.370Z,990.96
2018-03-18T11:03:40.394Z,990.97
2018-03-18T11:04:40.333Z,990.98
2018-03-18T11:05:40.318Z,990.97
2018-03-18T11:06:40.340Z,990.95
2018-03-18T11:07:40.288Z,990.98
2018-03-18T11:08:40.267Z,991.03
2018-03-18T11:09:40.291Z,991.03
2018-03-18T11:10:40.235Z,990.94
2018-03-18T11:11:40.225Z,990.91
2018-03-18T11:12:40.277Z,990.92
2018-03-18T11:13:40.185Z,990.97
2018-03-18T11:14:40.169Z,990.94
2018-03-18T11:15:40.231Z,990.94
2018-03-18T11:16:40.137Z,990.95
2018-03-18T11:17:40.119Z,990.97
2018-03-18T11:18:40.206Z,990.95
2018-03-18T11:19:40.085Z,990.91
2018-03-18T11:20:40.076Z,990.90
2018-03-18T11:21:40.255Z,990.97
2018-03-18T11:22:40.037Z,990.94
2018-03-18T11:23:40.019Z,990.91
2018-03-18T11:24:40.022Z,990.93
2018-03-18T11:25:39.986Z,990.92
2018-03-18T11:26:39.977Z,990.91
2018-03-18T11:27:39.951Z,990.97
2018-03-18T11:28:39.939Z,990.97
2018-03-18T11:29:39.922Z,990.93
2018-03-18T11:30:39.904Z,990.96
2018-03-18T11:31:39.885Z,990.97
2018-03-18T11:32:39.870Z,990.92
2018-03-18T11:33:39.852Z,990.96
2018-03-18T11:34:39.836Z,990.93
2018-03-18T11:35:40.038Z,990.95
2018-03-18T11:36:39.804Z,990.96
2018-03-18T11:37:39.796Z,990.90
2018-03-18T11:38:39.883Z,990.86
2018-03-18T11:39:39.760Z,990.93
2018-03-18T11:40:39.738Z,990.91
2018-03-18T11:41:39.765Z,990.92
2018-03-18T11:42:39.706Z,990.92
2018-03-18T11:43:39.689Z,990.88
2018-03-18T11:45:39.656Z,990.88
2018-03-18T11:46:39.641Z,990.88
2018-03-18T11:47:39.670Z,990.86
2018-03-18T11:48:39.607Z,990.89
2018-03-18T11:49:39.591Z,990.90
2018-03-18T11:50:39.594Z,990.95
2018-03-18T11:51:39.558Z,990.92
2018-03-18T11:52:39.542Z,990.90
2018-03-18T11:53:39.528Z,990.87
2018-03-18T11:54:39.511Z,990.86
2018-03-18T11:55:39.495Z,990.85
2018-03-18T11:56:39.479Z,990.84
2018-03-18T11:57:39.463Z,990.88
2018-03-18T11:58:39.682Z,990.92
2018-03-18T11:59:39.431Z,990.86
2018-03-18T12:00:39.420Z,990.90
2018-03-18T12:02:39.389Z,990.95
2018-03-18T12:03:39.371Z,990.92
2018-03-18T12:04:39.401Z,990.91
2018-03-18T12:05:39.342Z,990.86
2018-03-18T12:06:39.328Z,990.92
2018-03-18T12:07:39.357Z,990.88
2018-03-18T12:08:39.300Z,990.88
2018-03-18T12:09:39.286Z,990.89
2018-03-18T12:10:39.294Z,990.87
2018-03-18T12:11:39.253Z,990.90
2018-03-18T12:12:39.289Z,990.88
2018-03-18T12:13:39.291Z,990.93
2018-03-18T12:14:39.214Z,990.89
2018-03-18T12:15:39.195Z,990.87
2018-03-18T12:16:39.266Z,990.85
2018-03-18T12:17:39.165Z,990.85
2018-03-18T12:18:39.149Z,990.84
2018-03-18T12:19:39.226Z,990.80
2018-03-18T12:20:39.119Z,990.82
2018-03-18T12:21:39.105Z,990.84
2018-03-18T12:22:39.134Z,990.80
2018-03-18T12:23:39.074Z,990.77
2018-03-18T12:24:39.057Z,990.80
2018-03-18T12:25:39.042Z,990.81
2018-03-18T12:26:39.027Z,990.83
2018-03-18T12:27:39.011Z,990.83
2018-03-18T12:28:38.995Z,990.78
2018-03-18T12:29:38.980Z,990.82
2018-03-18T12:30:38.965Z,990.79
2018-03-18T12:31:38.949Z,990.80
2018-03-18T12:32:38.933Z,990.84
2018-03-18T12:33:38.918Z,990.83
2018-03-18T12:34:38.902Z,990.85